Gimhae International Airport
RKPK : now visible

Airfield :











YOU CAN JOIN US ON...

 
LOGIN :

Register | Disclaimer

   EN    FR    IT 

 









Legend :    VFR   Marginal VFR   IFR   Intensive IFR   Very Intensive IFR
Visi :
Ceiling :
>= 8 km
>= 3000ft
5 to 8 km
1000 to 3000 ft
1500m to 5 km
500 to 1000 ft
800 to 1500m
200 to 500 ft
< 800m
< 200 ft
Symbols :   Thunderstorms  Fog  Heavy snow  Heavy precipitations  Wind > 20 kt







- Airport Elevation : 6 ft
- IATA code : PUS


RKPK - Gimhae International

CURRENT METAR :
  • 270300Z 21013G23KT 2400 RA BR FEW005 BKN008 OVC020 20/18 Q1008

EXPIRED METARs :
  • 270224Z 20012G22KT 3200 RA BR FEW007 BKN010 OVC020 20/18 Q1008 RMK CIG010
  • 270210Z 19017G29KT 2400 RA BR FEW007 BKN010 OVC020 20/18 Q1009 RMK CIG010
  • 270200Z 19016KT 3200 RA BR FEW007 BKN010 OVC020 20/18 Q1009
  • 270100Z 18019KT 3200 RA BR FEW007 BKN010 OVC020 20/18 Q1009

TAF COR TAF RKPK
Valid from the 27 at 02:00 until the 28 at 06:00 UTC


270240Z 2702/2806 21015KT 1600 -RA BR SCT005 BKN010 OVC020 TN14/2721Z TX27/2806Z
BECMG 2711/2712 21006KT 4800 BR SCT015 BKN030
BECMG 2717/2718 30006KT CAVOK
RKRR FIR / Asia



MET'MAP, your aeronautical weather chart ! - Copyright ORBIFLY December 2007 - Disclaimer

ORBIFLY MET'MAP TEAM :

Programming & Development : Alexandra Zaïnal
Concept & Development : Baudouin d'Aumeries
Co-Development & Prog : Marc-Olivier Méhu
Technical & hardware support : Manuel Goepfert

Contact : metmap@orbifly.com




SOURCES & CREDITS :

   NOAA       Earth
Advisory